Terminal Aerodrome Forecast
Issued by NWS Boston, MA

Home | Current Version | Previous Version | Text Only | Print | Product List | Glossary On
Versions: 1 2 3 4 5 6 7 8 9 10 11 12 13 14 15 16 17 18 19 20 21 22 23 24 25 26 27
000
FTUS41 KBOX 022334
TAFPVD
TAF
KPVD 022334Z 0300/0324 27010KT P6SM FEW050 BKN090
     FM031100 30010G27KT P6SM SCT100 SCT250
     FM031800 32012G22KT P6SM SCT040 SCT250=

USA.gov is the U.S. government's official web portal to all federal, state and local government web resources and services.